| time (UTC) | temp C | wind direction | speed KPH | gust KPH | rain 1hr cm | rain 24hr cm | rain mn cm | humidity % | barometer mb |
| 20260504081527 | -17 | 0.0 | 0.0 | 0.00 | 0.00 | 0.00 | 1016.3 | ||
| 20260504044537 | -17 | 0.0 | 0.0 | 0.00 | 0.00 | 0.00 | 1016.1 | ||
| 20260504043034 | -17 | 0.0 | 0.0 | 0.00 | 0.00 | 0.00 | 1016.0 | ||
| 20260504041529 | -17 | 0.0 | 0.0 | 0.00 | 0.00 | 0.00 | 1015.9 | ||
| 20260504040034 | -17 | 0.0 | 0.0 | 0.00 | 0.00 | 0.00 | 1015.7 | ||
| 20260504034538 | -17 | 0.0 | 0.0 | 0.00 | 0.00 | 0.00 | 1015.5 | ||
| 20260504033041 | -17 | 0.0 | 0.0 | 0.00 | 0.00 | 0.00 | 1015.5 | ||
| 20260504031532 | -17 | 0.0 | 0.0 | 0.00 | 0.00 | 0.00 | 1015.3 | ||
| 20260504030030 | -17 | 0.0 | 0.0 | 0.00 | 0.00 | 0.00 | 1015.3 | ||
| 20260504024533 | -17 | 0.0 | 0.0 | 0.00 | 0.00 | 0.00 | 1015.3 | ||
| 20260504023030 | -17 | 0.0 | 0.0 | 0.00 | 0.00 | 0.00 | 1015.2 | ||
| 20260504021534 | -17 | 0.0 | 0.0 | 0.00 | 0.00 | 0.00 | 1015.3 | ||
| 20260504020028 | -17 | 0.0 | 0.0 | 0.00 | 0.00 | 0.00 | 1015.1 | ||
| 20260504014530 | -17 | 0.0 | 0.0 | 0.00 | 0.00 | 0.00 | 1015.0 | ||
| 20260504013037 | -17 | 0.0 | 0.0 | 0.00 | 0.00 | 0.00 | 1015.0 | ||
| 20260504011532 | -17 | 0.0 | 0.0 | 0.00 | 0.00 | 0.00 | 1014.8 | ||
| 20260504010041 | -17 | 0.0 | 0.0 | 0.00 | 0.00 | 0.00 | 1014.6 | ||
| 20260504004531 | -17 | 0.0 | 0.0 | 0.00 | 0.00 | 0.00 | 1014.5 | ||
| 20260504003030 | -17 | 0.0 | 0.0 | 0.00 | 0.00 | 0.00 | 1014.3 | ||
| 20260504001532 | -17 | 0.0 | 0.0 | 0.00 | 0.00 | 0.00 | 1014.1 | ||
| 20260504000031 | -17 | 0.0 | 0.0 | 0.00 | 0.00 | 0.00 | 1014.0 | ||
| 20260503234525 | 15 | 219 | 19.3 | 27.4 | 0.00 | 0.00 | 0.00 | 48 | 1014.0 |
| 20260503233026 | 15 | 238 | 19.3 | 29.0 | 0.00 | 0.00 | 0.00 | 48 | 1013.8 |
| 20260503231514 | 15 | 245 | 20.9 | 33.8 | 0.00 | 0.00 | 0.00 | 46 | 1013.8 |
| 20260503230018 | 15 | 269 | 17.7 | 29.0 | 0.00 | 0.00 | 0.00 | 45 | 1013.7 |
| 20260503224527 | 15 | 257 | 19.3 | 35.4 | 0.00 | 0.00 | 0.00 | 47 | 1013.9 |
| 20260503223025 | 15 | 275 | 17.7 | 30.6 | 0.00 | 0.00 | 0.00 | 44 | 1013.7 |
| 20260503221532 | 15 | 255 | 27.4 | 40.2 | 0.00 | 0.00 | 0.00 | 46 | 1013.9 |
| 20260503220018 | 15 | 249 | 24.1 | 41.8 | 0.00 | 0.00 | 0.00 | 45 | 1013.8 |
| 20260503214517 | 15 | 246 | 27.4 | 35.4 | 0.00 | 0.00 | 0.00 | 45 | 1013.8 |
| 20260503213030 | 15 | 291 | 14.5 | 33.8 | 0.00 | 0.00 | 0.00 | 46 | 1013.8 |
| 20260503211525 | 15 | 270 | 27.4 | 37.0 | 0.00 | 0.00 | 0.00 | 46 | 1013.8 |
| 20260503210026 | 14 | 267 | 29.0 | 38.6 | 0.00 | 0.00 | 0.00 | 50 | 1013.8 |
| 20260503204523 | 14 | 284 | 19.3 | 33.8 | 0.00 | 0.00 | 0.00 | 48 | 1013.9 |
| 20260503203020 | 14 | 265 | 20.9 | 30.6 | 0.00 | 0.00 | 0.00 | 48 | 1014.0 |
| 20260503201525 | 13 | 290 | 24.1 | 40.2 | 0.00 | 0.00 | 0.00 | 50 | 1014.1 |
| 20260503200012 | 13 | 242 | 25.7 | 45.1 | 0.00 | 0.00 | 0.00 | 49 | 1014.2 |
| 20260503194523 | 13 | 247 | 32.2 | 53.1 | 0.00 | 0.00 | 0.00 | 47 | 1014.0 |
| 20260503193028 | 13 | 246 | 20.9 | 46.7 | 0.00 | 0.00 | 0.00 | 47 | 1014.3 |
| 20260503191520 | 13 | 249 | 29.0 | 43.5 | 0.00 | 0.00 | 0.00 | 47 | 1014.3 |
| 20260503190017 | 13 | 259 | 27.4 | 40.2 | 0.00 | 0.00 | 0.00 | 49 | 1014.4 |
| 20260503184522 | 12 | 250 | 22.5 | 43.5 | 0.00 | 0.00 | 0.00 | 47 | 1014.6 |
| 20260503183025 | 12 | 279 | 17.7 | 35.4 | 0.00 | 0.00 | 0.00 | 47 | 1014.6 |
| 20260503181528 | 12 | 258 | 29.0 | 43.5 | 0.00 | 0.00 | 0.00 | 49 | 1014.8 |
| 20260503180029 | 12 | 271 | 30.6 | 43.5 | 0.00 | 0.00 | 0.00 | 49 | 1014.9 |
| 20260503174525 | 11 | 276 | 20.9 | 41.8 | 0.00 | 0.00 | 0.00 | 53 | 1015.0 |
| 20260503173036 | 11 | 272 | 16.1 | 40.2 | 0.00 | 0.00 | 0.00 | 51 | 1015.2 |
| 20260503171516 | 11 | 269 | 17.7 | 35.4 | 0.00 | 0.00 | 0.00 | 51 | 1015.1 |